Terminal Aerodrome Forecast
Issued by NWS

Home | Current Version | Previous Version | Text Only | Print | Product List | Glossary On
Versions: 1 2 3 4 5 6 7 8 9 10 11 12 13 14 15 16 17 18 19 20 21 22 23 24 25
000
FTUS46 KMTR 051720
TAFSFO
TAF
KSFO 051720Z 0518/0624 VRB06KT P6SM FEW010 SCT020 SCT200
     FM051900 29010KT P6SM FEW010 FEW020 SCT250
     FM052200 28015G21KT P6SM FEW010 FEW250
     FM060500 28009KT P6SM BKN010
     FM060700 28007KT P6SM OVC010
     FM061700 27008KT P6SM FEW010
     FM062100 27016G22KT P6SM FEW010=

USA.gov is the U.S. government's official web portal to all federal, state and local government web resources and services.